sensor_id;sensor_type;location;lat;lon;timestamp;pressure;altitude;pressure_sealevel;temperature
71205;BMP180;58935;54.498;18.544;2023-01-09T00:02:09;99363.80;;;5.70
71205;BMP180;58935;54.498;18.544;2023-01-09T00:04:35;99365.80;;;5.70
71205;BMP180;58935;54.498;18.544;2023-01-09T00:07:00;99359.40;;;5.70
71205;BMP180;58935;54.498;18.544;2023-01-09T00:09:26;99358.80;;;5.70
71205;BMP180;58935;54.498;18.544;2023-01-09T00:11:52;99361.00;;;5.72
71205;BMP180;58935;54.498;18.544;2023-01-09T00:14:19;99356.00;;;5.80
71205;BMP180;58935;54.498;18.544;2023-01-09T00:16:47;99351.80;;;5.80
71205;BMP180;58935;54.498;18.544;2023-01-09T00:19:13;99362.20;;;5.80
71205;BMP180;58935;54.498;18.544;2023-01-09T00:21:40;99356.00;;;5.80
71205;BMP180;58935;54.498;18.544;2023-01-09T00:24:06;99349.80;;;5.80
71205;BMP180;58935;54.498;18.544;2023-01-09T00:26:34;99348.60;;;5.80
71205;BMP180;58935;54.498;18.544;2023-01-09T00:29:00;99344.20;;;5.80
71205;BMP180;58935;54.498;18.544;2023-01-09T00:31:26;99337.20;;;5.80
71205;BMP180;58935;54.498;18.544;2023-01-09T00:33:59;99330.20;;;5.80
71205;BMP180;58935;54.498;18.544;2023-01-09T00:36:24;99326.20;;;5.80
71205;BMP180;58935;54.498;18.544;2023-01-09T00:38:50;99325.80;;;5.80
71205;BMP180;58935;54.498;18.544;2023-01-09T00:41:20;99316.00;;;5.80
71205;BMP180;58935;54.498;18.544;2023-01-09T00:43:50;99311.80;;;5.80
71205;BMP180;58935;54.498;18.544;2023-01-09T00:46:19;99309.00;;;5.80
71205;BMP180;58935;54.498;18.544;2023-01-09T00:48:47;99306.40;;;5.80
71205;BMP180;58935;54.498;18.544;2023-01-09T00:51:17;99311.20;;;5.80
71205;BMP180;58935;54.498;18.544;2023-01-09T00:53:43;99310.40;;;5.70
71205;BMP180;58935;54.498;18.544;2023-01-09T00:56:14;99310.00;;;5.70
71205;BMP180;58935;54.498;18.544;2023-01-09T00:58:40;99304.60;;;5.70
71205;BMP180;58935;54.498;18.544;2023-01-09T01:01:06;99307.80;;;5.70
71205;BMP180;58935;54.498;18.544;2023-01-09T01:03:31;99310.60;;;5.70
71205;BMP180;58935;54.498;18.544;2023-01-09T01:05:57;99315.00;;;5.70
71205;BMP180;58935;54.498;18.544;2023-01-09T01:08:28;99312.20;;;5.70
71205;BMP180;58935;54.498;18.544;2023-01-09T01:10:54;99308.00;;;5.70
71205;BMP180;58935;54.498;18.544;2023-01-09T01:13:21;99307.80;;;5.70
71205;BMP180;58935;54.498;18.544;2023-01-09T01:15:47;99299.00;;;5.62
71205;BMP180;58935;54.498;18.544;2023-01-09T01:18:13;99298.40;;;5.60
71205;BMP180;58935;54.498;18.544;2023-01-09T01:20:40;99299.60;;;5.60
71205;BMP180;58935;54.498;18.544;2023-01-09T01:23:05;99305.00;;;5.60
71205;BMP180;58935;54.498;18.544;2023-01-09T01:25:31;99302.00;;;5.60
71205;BMP180;58935;54.498;18.544;2023-01-09T01:27:57;99297.80;;;5.60
71205;BMP180;58935;54.498;18.544;2023-01-09T01:30:22;99299.60;;;5.60
71205;BMP180;58935;54.498;18.544;2023-01-09T01:32:48;99297.00;;;5.60
71205;BMP180;58935;54.498;18.544;2023-01-09T01:35:13;99305.40;;;5.54
71205;BMP180;58935;54.498;18.544;2023-01-09T01:37:39;99304.20;;;5.50
71205;BMP180;58935;54.498;18.544;2023-01-09T01:40:06;99312.40;;;5.50
71205;BMP180;58935;54.498;18.544;2023-01-09T01:42:32;99308.40;;;5.50
71205;BMP180;58935;54.498;18.544;2023-01-09T01:45:04;99303.20;;;5.50
71205;BMP180;58935;54.498;18.544;2023-01-09T01:47:48;99297.60;;;5.50
71205;BMP180;58935;54.498;18.544;2023-01-09T01:50:24;99291.40;;;5.50
71205;BMP180;58935;54.498;18.544;2023-01-09T01:53:02;99288.40;;;5.58
71205;BMP180;58935;54.498;18.544;2023-01-09T01:55:32;99289.80;;;5.50
71205;BMP180;58935;54.498;18.544;2023-01-09T01:58:04;99288.20;;;5.50
71205;BMP180;58935;54.498;18.544;2023-01-09T02:00:33;99285.80;;;5.50
71205;BMP180;58935;54.498;18.544;2023-01-09T02:03:00;99282.80;;;5.50
71205;BMP180;58935;54.498;18.544;2023-01-09T02:05:26;99272.80;;;5.46
71205;BMP180;58935;54.498;18.544;2023-01-09T02:07:54;99272.80;;;5.40
71205;BMP180;58935;54.498;18.544;2023-01-09T02:10:19;99272.60;;;5.40
71205;BMP180;58935;54.498;18.544;2023-01-09T02:12:48;99277.00;;;5.40
71205;BMP180;58935;54.498;18.544;2023-01-09T02:15:18;99279.40;;;5.40
71205;BMP180;58935;54.498;18.544;2023-01-09T02:18:08;99275.20;;;5.40
71205;BMP180;58935;54.498;18.544;2023-01-09T02:20:42;99276.40;;;5.40
71205;BMP180;58935;54.498;18.544;2023-01-09T02:23:29;99268.40;;;5.32
71205;BMP180;58935;54.498;18.544;2023-01-09T02:26:13;99273.40;;;5.30
71205;BMP180;58935;54.498;18.544;2023-01-09T02:29:02;99277.20;;;5.30
71205;BMP180;58935;54.498;18.544;2023-01-09T02:31:35;99265.40;;;5.30
71205;BMP180;58935;54.498;18.544;2023-01-09T02:34:13;99264.00;;;5.28
71205;BMP180;58935;54.498;18.544;2023-01-09T02:41:54;99266.40;;;5.30
71205;BMP180;58935;54.498;18.544;2023-01-09T02:44:25;99267.20;;;5.26
71205;BMP180;58935;54.498;18.544;2023-01-09T02:49:22;99256.00;;;5.30
71205;BMP180;58935;54.498;18.544;2023-01-09T02:51:51;99255.20;;;5.30
71205;BMP180;58935;54.498;18.544;2023-01-09T02:54:26;99255.60;;;5.30
71205;BMP180;58935;54.498;18.544;2023-01-09T02:56:57;99254.60;;;5.30
71205;BMP180;58935;54.498;18.544;2023-01-09T02:59:32;99253.60;;;5.30
71205;BMP180;58935;54.498;18.544;2023-01-09T03:02:24;99245.20;;;5.30
71205;BMP180;58935;54.498;18.544;2023-01-09T03:05:05;99255.80;;;5.26
71205;BMP180;58935;54.498;18.544;2023-01-09T03:07:38;99252.00;;;5.26
71205;BMP180;58935;54.498;18.544;2023-01-09T03:13:00;99260.00;;;5.30
71205;BMP180;58935;54.498;18.544;2023-01-09T03:15:33;99256.40;;;5.30
71205;BMP180;58935;54.498;18.544;2023-01-09T03:18:03;99249.40;;;5.30
71205;BMP180;58935;54.498;18.544;2023-01-09T03:20:30;99246.60;;;5.30
71205;BMP180;58935;54.498;18.544;2023-01-09T03:22:59;99251.20;;;5.30
71205;BMP180;58935;54.498;18.544;2023-01-09T03:25:26;99250.40;;;5.32
71205;BMP180;58935;54.498;18.544;2023-01-09T03:27:56;99252.20;;;5.38
71205;BMP180;58935;54.498;18.544;2023-01-09T03:30:23;99245.80;;;5.32
71205;BMP180;58935;54.498;18.544;2023-01-09T03:32:49;99242.40;;;5.30
71205;BMP180;58935;54.498;18.544;2023-01-09T03:35:17;99237.20;;;5.24
71205;BMP180;58935;54.498;18.544;2023-01-09T03:37:43;99241.40;;;5.20
71205;BMP180;58935;54.498;18.544;2023-01-09T03:40:11;99240.40;;;5.20
71205;BMP180;58935;54.498;18.544;2023-01-09T03:42:37;99239.80;;;5.18
71205;BMP180;58935;54.498;18.544;2023-01-09T03:45:03;99239.60;;;5.18
71205;BMP180;58935;54.498;18.544;2023-01-09T03:47:29;99245.80;;;5.20
71205;BMP180;58935;54.498;18.544;2023-01-09T03:49:54;99245.20;;;5.20
71205;BMP180;58935;54.498;18.544;2023-01-09T03:52:20;99243.20;;;5.20
71205;BMP180;58935;54.498;18.544;2023-01-09T03:54:45;99242.60;;;5.20
71205;BMP180;58935;54.498;18.544;2023-01-09T03:57:11;99242.80;;;5.20
71205;BMP180;58935;54.498;18.544;2023-01-09T03:59:36;99241.40;;;5.20
71205;BMP180;58935;54.498;18.544;2023-01-09T04:02:04;99237.80;;;5.20
71205;BMP180;58935;54.498;18.544;2023-01-09T04:04:30;99234.60;;;5.20
71205;BMP180;58935;54.498;18.544;2023-01-09T04:06:56;99230.80;;;5.20
71205;BMP180;58935;54.498;18.544;2023-01-09T04:09:21;99233.80;;;5.20
71205;BMP180;58935;54.498;18.544;2023-01-09T04:11:47;99226.40;;;5.20
71205;BMP180;58935;54.498;18.544;2023-01-09T04:14:13;99223.60;;;5.20
71205;BMP180;58935;54.498;18.544;2023-01-09T04:16:38;99223.20;;;5.18
71205;BMP180;58935;54.498;18.544;2023-01-09T04:19:04;99218.40;;;5.20
71205;BMP180;58935;54.498;18.544;2023-01-09T04:21:30;99224.60;;;5.20
71205;BMP180;58935;54.498;18.544;2023-01-09T04:23:55;99230.00;;;5.20
71205;BMP180;58935;54.498;18.544;2023-01-09T04:26:23;99229.40;;;5.20
71205;BMP180;58935;54.498;18.544;2023-01-09T04:28:51;99229.80;;;5.20
71205;BMP180;58935;54.498;18.544;2023-01-09T04:31:16;99227.80;;;5.20
71205;BMP180;58935;54.498;18.544;2023-01-09T04:33:42;99233.00;;;5.20
71205;BMP180;58935;54.498;18.544;2023-01-09T04:36:07;99237.20;;;5.20
71205;BMP180;58935;54.498;18.544;2023-01-09T04:38:33;99234.00;;;5.20
71205;BMP180;58935;54.498;18.544;2023-01-09T04:40:58;99231.60;;;5.18
71205;BMP180;58935;54.498;18.544;2023-01-09T04:43:24;99232.80;;;5.20
71205;BMP180;58935;54.498;18.544;2023-01-09T04:45:50;99234.20;;;5.20
71205;BMP180;58935;54.498;18.544;2023-01-09T04:48:16;99237.80;;;5.20
71205;BMP180;58935;54.498;18.544;2023-01-09T04:50:42;99236.80;;;5.20
71205;BMP180;58935;54.498;18.544;2023-01-09T04:53:09;99238.20;;;5.20
71205;BMP180;58935;54.498;18.544;2023-01-09T04:55:37;99234.40;;;5.20
71205;BMP180;58935;54.498;18.544;2023-01-09T04:58:05;99229.60;;;5.20
71205;BMP180;58935;54.498;18.544;2023-01-09T05:00:30;99230.40;;;5.20
71205;BMP180;58935;54.498;18.544;2023-01-09T05:02:56;99228.00;;;5.20
71205;BMP180;58935;54.498;18.544;2023-01-09T05:05:22;99231.20;;;5.20
71205;BMP180;58935;54.498;18.544;2023-01-09T05:07:47;99226.60;;;5.20
71205;BMP180;58935;54.498;18.544;2023-01-09T05:10:15;99229.80;;;5.20
71205;BMP180;58935;54.498;18.544;2023-01-09T05:12:43;99223.20;;;5.18
71205;BMP180;58935;54.498;18.544;2023-01-09T05:15:11;99218.00;;;5.10
71205;BMP180;58935;54.498;18.544;2023-01-09T05:17:38;99217.20;;;5.10
71205;BMP180;58935;54.498;18.544;2023-01-09T05:20:06;99213.60;;;5.10
71205;BMP180;58935;54.498;18.544;2023-01-09T05:22:34;99207.00;;;5.12
71205;BMP180;58935;54.498;18.544;2023-01-09T05:25:02;99200.00;;;5.20
71205;BMP180;58935;54.498;18.544;2023-01-09T05:27:28;99197.80;;;5.16
71205;BMP180;58935;54.498;18.544;2023-01-09T05:29:54;99195.80;;;5.20
71205;BMP180;58935;54.498;18.544;2023-01-09T05:32:20;99194.40;;;5.20
71205;BMP180;58935;54.498;18.544;2023-01-09T05:34:45;99191.60;;;5.20
71205;BMP180;58935;54.498;18.544;2023-01-09T05:37:11;99187.40;;;5.20
71205;BMP180;58935;54.498;18.544;2023-01-09T05:39:36;99190.20;;;5.30
71205;BMP180;58935;54.498;18.544;2023-01-09T05:42:02;99193.60;;;5.30
71205;BMP180;58935;54.498;18.544;2023-01-09T05:44:27;99196.20;;;5.30
71205;BMP180;58935;54.498;18.544;2023-01-09T05:46:53;99192.40;;;5.34
71205;BMP180;58935;54.498;18.544;2023-01-09T05:49:18;99189.60;;;5.40
71205;BMP180;58935;54.498;18.544;2023-01-09T05:51:44;99190.80;;;5.40
71205;BMP180;58935;54.498;18.544;2023-01-09T05:54:09;99194.60;;;5.50
71205;BMP180;58935;54.498;18.544;2023-01-09T05:56:35;99194.40;;;5.50
71205;BMP180;58935;54.498;18.544;2023-01-09T05:59:00;99193.60;;;5.50
71205;BMP180;58935;54.498;18.544;2023-01-09T06:01:28;99193.00;;;5.48
71205;BMP180;58935;54.498;18.544;2023-01-09T06:03:53;99187.00;;;5.42
71205;BMP180;58935;54.498;18.544;2023-01-09T06:06:19;99185.40;;;5.40
71205;BMP180;58935;54.498;18.544;2023-01-09T06:08:44;99179.40;;;5.40
71205;BMP180;58935;54.498;18.544;2023-01-09T06:11:10;99182.80;;;5.46
71205;BMP180;58935;54.498;18.544;2023-01-09T06:13:36;99175.40;;;5.50
71205;BMP180;58935;54.498;18.544;2023-01-09T06:16:01;99181.00;;;5.50
71205;BMP180;58935;54.498;18.544;2023-01-09T06:18:27;99181.00;;;5.50
71205;BMP180;58935;54.498;18.544;2023-01-09T06:20:52;99173.60;;;5.50
71205;BMP180;58935;54.498;18.544;2023-01-09T06:23:17;99171.40;;;5.50
71205;BMP180;58935;54.498;18.544;2023-01-09T06:25:43;99175.20;;;5.50
71205;BMP180;58935;54.498;18.544;2023-01-09T06:28:10;99177.40;;;5.50
71205;BMP180;58935;54.498;18.544;2023-01-09T06:30:41;99177.60;;;5.50
71205;BMP180;58935;54.498;18.544;2023-01-09T06:33:09;99172.60;;;5.50
71205;BMP180;58935;54.498;18.544;2023-01-09T06:35:34;99173.60;;;5.50
71205;BMP180;58935;54.498;18.544;2023-01-09T06:38:00;99168.80;;;5.50
71205;BMP180;58935;54.498;18.544;2023-01-09T06:40:27;99163.00;;;5.46
71205;BMP180;58935;54.498;18.544;2023-01-09T06:42:52;99158.00;;;5.44
71205;BMP180;58935;54.498;18.544;2023-01-09T06:45:18;99160.00;;;5.42
71205;BMP180;58935;54.498;18.544;2023-01-09T06:47:45;99157.00;;;5.40
71205;BMP180;58935;54.498;18.544;2023-01-09T06:50:11;99153.60;;;5.40
71205;BMP180;58935;54.498;18.544;2023-01-09T06:52:37;99158.00;;;5.40
71205;BMP180;58935;54.498;18.544;2023-01-09T06:55:06;99163.20;;;5.34
71205;BMP180;58935;54.498;18.544;2023-01-09T06:57:32;99162.20;;;5.30
71205;BMP180;58935;54.498;18.544;2023-01-09T06:59:58;99160.20;;;5.30
71205;BMP180;58935;54.498;18.544;2023-01-09T07:02:26;99166.80;;;5.30
71205;BMP180;58935;54.498;18.544;2023-01-09T07:04:51;99166.40;;;5.30
71205;BMP180;58935;54.498;18.544;2023-01-09T07:07:17;99164.60;;;5.30
71205;BMP180;58935;54.498;18.544;2023-01-09T07:09:43;99165.40;;;5.30
71205;BMP180;58935;54.498;18.544;2023-01-09T07:12:09;99162.40;;;5.30
71205;BMP180;58935;54.498;18.544;2023-01-09T07:14:34;99169.60;;;5.30
71205;BMP180;58935;54.498;18.544;2023-01-09T07:17:02;99162.00;;;5.30
71205;BMP180;58935;54.498;18.544;2023-01-09T07:19:28;99160.80;;;5.34
71205;BMP180;58935;54.498;18.544;2023-01-09T07:21:55;99157.80;;;5.30
71205;BMP180;58935;54.498;18.544;2023-01-09T07:24:21;99158.20;;;5.30
71205;BMP180;58935;54.498;18.544;2023-01-09T07:26:46;99153.80;;;5.30
71205;BMP180;58935;54.498;18.544;2023-01-09T07:29:14;99166.00;;;5.30
71205;BMP180;58935;54.498;18.544;2023-01-09T07:31:42;99172.00;;;5.30
71205;BMP180;58935;54.498;18.544;2023-01-09T07:34:07;99169.60;;;5.30
71205;BMP180;58935;54.498;18.544;2023-01-09T07:36:35;99162.20;;;5.30
71205;BMP180;58935;54.498;18.544;2023-01-09T07:39:01;99164.80;;;5.30
71205;BMP180;58935;54.498;18.544;2023-01-09T07:41:26;99167.40;;;5.30
71205;BMP180;58935;54.498;18.544;2023-01-09T07:43:52;99167.20;;;5.40
71205;BMP180;58935;54.498;18.544;2023-01-09T07:46:17;99166.00;;;5.40
71205;BMP180;58935;54.498;18.544;2023-01-09T07:48:45;99159.80;;;5.38
71205;BMP180;58935;54.498;18.544;2023-01-09T07:51:10;99157.20;;;5.40
71205;BMP180;58935;54.498;18.544;2023-01-09T07:53:41;99156.60;;;5.38
71205;BMP180;58935;54.498;18.544;2023-01-09T07:56:09;99148.00;;;5.40
71205;BMP180;58935;54.498;18.544;2023-01-09T07:58:34;99144.20;;;5.40
71205;BMP180;58935;54.498;18.544;2023-01-09T10:55:44;99096.60;;;5.10
71205;BMP180;58935;54.498;18.544;2023-01-09T10:58:17;99102.60;;;5.10
71205;BMP180;58935;54.498;18.544;2023-01-09T11:00:44;99096.00;;;5.02
71205;BMP180;58935;54.498;18.544;2023-01-09T11:03:12;99098.20;;;5.00
71205;BMP180;58935;54.498;18.544;2023-01-09T11:05:39;99097.60;;;5.00
71205;BMP180;58935;54.498;18.544;2023-01-09T11:08:20;99100.40;;;5.00
71205;BMP180;58935;54.498;18.544;2023-01-09T11:10:53;99095.80;;;5.00
71205;BMP180;58935;54.498;18.544;2023-01-09T11:13:24;99092.20;;;5.00
71205;BMP180;58935;54.498;18.544;2023-01-09T11:18:25;99088.40;;;5.00
71205;BMP180;58935;54.498;18.544;2023-01-09T11:20:51;99080.00;;;5.00
71205;BMP180;58935;54.498;18.544;2023-01-09T11:23:24;99079.80;;;5.00
71205;BMP180;58935;54.498;18.544;2023-01-09T11:25:56;99082.80;;;5.00
71205;BMP180;58935;54.498;18.544;2023-01-09T11:28:22;99086.00;;;5.00
71205;BMP180;58935;54.498;18.544;2023-01-09T11:30:59;99084.20;;;5.00
71205;BMP180;58935;54.498;18.544;2023-01-09T11:33:35;99081.80;;;5.00
71205;BMP180;58935;54.498;18.544;2023-01-09T11:36:08;99081.20;;;5.00
71205;BMP180;58935;54.498;18.544;2023-01-09T11:41:20;99074.60;;;5.10
71205;BMP180;58935;54.498;18.544;2023-01-09T11:43:50;99075.20;;;5.10
71205;BMP180;58935;54.498;18.544;2023-01-09T11:48:57;99085.00;;;5.10
71205;BMP180;58935;54.498;18.544;2023-01-09T11:51:28;99087.40;;;5.10
71205;BMP180;58935;54.498;18.544;2023-01-09T11:56:26;99085.20;;;5.18
71205;BMP180;58935;54.498;18.544;2023-01-09T11:58:55;99082.60;;;5.20
71205;BMP180;58935;54.498;18.544;2023-01-09T12:01:38;99079.80;;;5.20
71205;BMP180;58935;54.498;18.544;2023-01-09T12:07:28;99074.20;;;5.20
71205;BMP180;58935;54.498;18.544;2023-01-09T12:10:43;99068.40;;;5.20
71205;BMP180;58935;54.498;18.544;2023-01-09T12:13:05;99057.20;;;5.26
71205;BMP180;58935;54.498;18.544;2023-01-09T12:16:22;99063.80;;;5.30
71205;BMP180;58935;54.498;18.544;2023-01-09T12:19:11;99059.00;;;5.30
71205;BMP180;58935;54.498;18.544;2023-01-09T12:21:56;99061.80;;;5.34
71205;BMP180;58935;54.498;18.544;2023-01-09T12:30:10;99060.00;;;5.30
71205;BMP180;58935;54.498;18.544;2023-01-09T12:33:25;99051.40;;;5.30
71205;BMP180;58935;54.498;18.544;2023-01-09T12:36:18;99043.60;;;5.30
71205;BMP180;58935;54.498;18.544;2023-01-09T12:38:58;99043.80;;;5.28
71205;BMP180;58935;54.498;18.544;2023-01-09T12:44:38;99035.80;;;5.20
71205;BMP180;58935;54.498;18.544;2023-01-09T12:47:14;99039.60;;;5.20
71205;BMP180;58935;54.498;18.544;2023-01-09T12:50:13;99037.40;;;5.20
71205;BMP180;58935;54.498;18.544;2023-01-09T12:54:32;99039.20;;;5.30
71205;BMP180;58935;54.498;18.544;2023-01-09T12:55:48;99043.00;;;5.30
71205;BMP180;58935;54.498;18.544;2023-01-09T12:58:32;99036.40;;;5.30
71205;BMP180;58935;54.498;18.544;2023-01-09T13:01:11;99038.60;;;5.30
71205;BMP180;58935;54.498;18.544;2023-01-09T13:03:49;99035.40;;;5.30
71205;BMP180;58935;54.498;18.544;2023-01-09T13:06:19;99028.00;;;5.20
71205;BMP180;58935;54.498;18.544;2023-01-09T13:09:04;99025.40;;;5.20
71205;BMP180;58935;54.498;18.544;2023-01-09T13:11:40;99026.80;;;5.20
71205;BMP180;58935;54.498;18.544;2023-01-09T13:14:22;99024.80;;;5.18
71205;BMP180;58935;54.498;18.544;2023-01-09T13:16:53;99022.00;;;5.10
71205;BMP180;58935;54.498;18.544;2023-01-09T13:19:27;99021.60;;;5.10
71205;BMP180;58935;54.498;18.544;2023-01-09T13:21:57;99014.60;;;5.00
71205;BMP180;58935;54.498;18.544;2023-01-09T13:24:35;99013.20;;;5.00
71205;BMP180;58935;54.498;18.544;2023-01-09T13:27:10;99013.80;;;5.00
71205;BMP180;58935;54.498;18.544;2023-01-09T13:29:40;99020.00;;;5.00
71205;BMP180;58935;54.498;18.544;2023-01-09T13:32:28;99018.60;;;4.90
71205;BMP180;58935;54.498;18.544;2023-01-09T13:35:02;99017.00;;;4.90
71205;BMP180;58935;54.498;18.544;2023-01-09T13:37:34;99018.60;;;4.90
71205;BMP180;58935;54.498;18.544;2023-01-09T13:40:37;99018.60;;;4.90
71205;BMP180;58935;54.498;18.544;2023-01-09T13:43:01;99017.60;;;4.94
71205;BMP180;58935;54.498;18.544;2023-01-09T13:45:30;99017.40;;;4.90
71205;BMP180;58935;54.498;18.544;2023-01-09T13:48:24;99011.80;;;4.90
71205;BMP180;58935;54.498;18.544;2023-01-09T13:50:50;99013.60;;;4.90
71205;BMP180;58935;54.498;18.544;2023-01-09T13:53:42;99015.60;;;4.90
71205;BMP180;58935;54.498;18.544;2023-01-09T13:56:07;99014.00;;;4.90
71205;BMP180;58935;54.498;18.544;2023-01-09T14:01:40;99016.40;;;4.90
71205;BMP180;58935;54.498;18.544;2023-01-09T14:04:36;99016.20;;;4.90
71205;BMP180;58935;54.498;18.544;2023-01-09T14:09:47;99022.00;;;4.90
71205;BMP180;58935;54.498;18.544;2023-01-09T14:12:15;99024.80;;;4.90
71205;BMP180;58935;54.498;18.544;2023-01-09T14:14:46;99029.00;;;4.90
71205;BMP180;58935;54.498;18.544;2023-01-09T14:17:21;99031.00;;;4.90
71205;BMP180;58935;54.498;18.544;2023-01-09T14:19:57;99026.60;;;4.94
71205;BMP180;58935;54.498;18.544;2023-01-09T14:22:32;99028.20;;;5.00
71205;BMP180;58935;54.498;18.544;2023-01-09T14:25:08;99030.60;;;5.00
71205;BMP180;58935;54.498;18.544;2023-01-09T14:30:28;99030.80;;;5.00
71205;BMP180;58935;54.498;18.544;2023-01-09T14:33:03;99029.00;;;5.00
71205;BMP180;58935;54.498;18.544;2023-01-09T14:35:40;99035.60;;;5.02
71205;BMP180;58935;54.498;18.544;2023-01-09T14:40:53;99030.00;;;5.04
71205;BMP180;58935;54.498;18.544;2023-01-09T14:43:30;99033.60;;;5.04
71205;BMP180;58935;54.498;18.544;2023-01-09T14:46:03;99033.40;;;5.10
71205;BMP180;58935;54.498;18.544;2023-01-09T14:48:34;99032.60;;;5.10
71205;BMP180;58935;54.498;18.544;2023-01-09T14:51:03;99028.60;;;5.10
71205;BMP180;58935;54.498;18.544;2023-01-09T14:53:36;99032.40;;;5.10
71205;BMP180;58935;54.498;18.544;2023-01-09T14:56:24;99037.20;;;5.10
71205;BMP180;58935;54.498;18.544;2023-01-09T15:01:33;99036.20;;;5.10
71205;BMP180;58935;54.498;18.544;2023-01-09T15:04:05;99040.00;;;5.10
71205;BMP180;58935;54.498;18.544;2023-01-09T15:06:41;99047.00;;;5.10
71205;BMP180;58935;54.498;18.544;2023-01-09T15:09:24;99042.00;;;5.10
71205;BMP180;58935;54.498;18.544;2023-01-09T15:11:59;99038.80;;;5.10
71205;BMP180;58935;54.498;18.544;2023-01-09T15:14:37;99035.80;;;5.14
71205;BMP180;58935;54.498;18.544;2023-01-09T15:17:15;99035.20;;;5.20
71205;BMP180;58935;54.498;18.544;2023-01-09T15:19:47;99033.00;;;5.22
71205;BMP180;58935;54.498;18.544;2023-01-09T15:24:50;99037.00;;;5.20
71205;BMP180;58935;54.498;18.544;2023-01-09T15:27:18;99040.20;;;5.20
71205;BMP180;58935;54.498;18.544;2023-01-09T15:29:50;99042.60;;;5.20
71205;BMP180;58935;54.498;18.544;2023-01-09T15:32:24;99044.80;;;5.28
71205;BMP180;58935;54.498;18.544;2023-01-09T15:34:52;99040.20;;;5.26
71205;BMP180;58935;54.498;18.544;2023-01-09T15:37:28;99043.80;;;5.30
71205;BMP180;58935;54.498;18.544;2023-01-09T15:39:56;99050.80;;;5.30
71205;BMP180;58935;54.498;18.544;2023-01-09T15:42:28;99053.80;;;5.30
71205;BMP180;58935;54.498;18.544;2023-01-09T15:44:58;99056.40;;;5.30
71205;BMP180;58935;54.498;18.544;2023-01-09T15:47:26;99062.60;;;5.40
71205;BMP180;58935;54.498;18.544;2023-01-09T15:49:55;99059.00;;;5.40
71205;BMP180;58935;54.498;18.544;2023-01-09T15:52:22;99059.60;;;5.40
71205;BMP180;58935;54.498;18.544;2023-01-09T15:54:50;99064.20;;;5.40
71205;BMP180;58935;54.498;18.544;2023-01-09T15:57:30;99067.00;;;5.40
71205;BMP180;58935;54.498;18.544;2023-01-09T16:00:31;99063.00;;;5.40
71205;BMP180;58935;54.498;18.544;2023-01-09T16:03:01;99063.60;;;5.40
71205;BMP180;58935;54.498;18.544;2023-01-09T16:05:30;99062.00;;;5.34
71205;BMP180;58935;54.498;18.544;2023-01-09T16:07:58;99059.60;;;5.30
71205;BMP180;58935;54.498;18.544;2023-01-09T16:10:32;99064.40;;;5.30
71205;BMP180;58935;54.498;18.544;2023-01-09T16:13:01;99062.00;;;5.30
71205;BMP180;58935;54.498;18.544;2023-01-09T16:15:32;99065.80;;;5.30
71205;BMP180;58935;54.498;18.544;2023-01-09T16:18:20;99067.80;;;5.30
71205;BMP180;58935;54.498;18.544;2023-01-09T16:20:46;99070.20;;;5.30
71205;BMP180;58935;54.498;18.544;2023-01-09T16:23:20;99078.80;;;5.40
71205;BMP180;58935;54.498;18.544;2023-01-09T16:25:46;99076.60;;;5.40
71205;BMP180;58935;54.498;18.544;2023-01-09T16:28:24;99083.60;;;5.50
71205;BMP180;58935;54.498;18.544;2023-01-09T16:31:00;99082.00;;;5.50
71205;BMP180;58935;54.498;18.544;2023-01-09T16:33:30;99076.20;;;5.50
71205;BMP180;58935;54.498;18.544;2023-01-09T16:35:56;99080.00;;;5.50
71205;BMP180;58935;54.498;18.544;2023-01-09T16:38:26;99078.00;;;5.50
71205;BMP180;58935;54.498;18.544;2023-01-09T16:41:13;99078.00;;;5.60
71205;BMP180;58935;54.498;18.544;2023-01-09T16:43:45;99072.00;;;5.60
71205;BMP180;58935;54.498;18.544;2023-01-09T16:46:13;99073.20;;;5.60
71205;BMP180;58935;54.498;18.544;2023-01-09T16:48:42;99074.80;;;5.60
71205;BMP180;58935;54.498;18.544;2023-01-09T16:51:15;99071.00;;;5.60
71205;BMP180;58935;54.498;18.544;2023-01-09T16:53:41;99078.40;;;5.60
71205;BMP180;58935;54.498;18.544;2023-01-09T16:56:16;99079.80;;;5.60
71205;BMP180;58935;54.498;18.544;2023-01-09T16:58:44;99082.20;;;5.62
71205;BMP180;58935;54.498;18.544;2023-01-09T17:01:11;99080.80;;;5.70
71205;BMP180;58935;54.498;18.544;2023-01-09T17:03:40;99083.20;;;5.70
71205;BMP180;58935;54.498;18.544;2023-01-09T17:06:14;99081.20;;;5.70
71205;BMP180;58935;54.498;18.544;2023-01-09T17:08:42;99084.60;;;5.70
71205;BMP180;58935;54.498;18.544;2023-01-09T17:11:19;99084.00;;;5.70
71205;BMP180;58935;54.498;18.544;2023-01-09T17:13:50;99081.00;;;5.70
71205;BMP180;58935;54.498;18.544;2023-01-09T17:16:17;99084.60;;;5.80
71205;BMP180;58935;54.498;18.544;2023-01-09T17:18:44;99082.20;;;5.80
71205;BMP180;58935;54.498;18.544;2023-01-09T17:21:17;99079.60;;;5.80
71205;BMP180;58935;54.498;18.544;2023-01-09T17:23:46;99083.00;;;5.78
71205;BMP180;58935;54.498;18.544;2023-01-09T17:26:18;99085.60;;;5.80
71205;BMP180;58935;54.498;18.544;2023-01-09T17:28:50;99083.60;;;5.78
71205;BMP180;58935;54.498;18.544;2023-01-09T17:31:17;99087.20;;;5.80
71205;BMP180;58935;54.498;18.544;2023-01-09T17:33:43;99084.60;;;5.80
71205;BMP180;58935;54.498;18.544;2023-01-09T17:36:30;99086.20;;;5.80
71205;BMP180;58935;54.498;18.544;2023-01-09T17:39:00;99088.00;;;5.80
71205;BMP180;58935;54.498;18.544;2023-01-09T17:41:29;99087.80;;;5.80
71205;BMP180;58935;54.498;18.544;2023-01-09T17:43:57;99094.80;;;5.90
71205;BMP180;58935;54.498;18.544;2023-01-09T17:46:30;99098.40;;;5.80
71205;BMP180;58935;54.498;18.544;2023-01-09T17:48:59;99093.80;;;5.80
71205;BMP180;58935;54.498;18.544;2023-01-09T17:51:27;99093.40;;;5.80
71205;BMP180;58935;54.498;18.544;2023-01-09T17:53:55;99092.00;;;5.80
71205;BMP180;58935;54.498;18.544;2023-01-09T17:56:25;99098.40;;;5.82
71205;BMP180;58935;54.498;18.544;2023-01-09T17:58:52;99098.20;;;5.88
71205;BMP180;58935;54.498;18.544;2023-01-09T18:01:18;99103.40;;;5.88
71205;BMP180;58935;54.498;18.544;2023-01-09T18:03:45;99103.60;;;5.80
71205;BMP180;58935;54.498;18.544;2023-01-09T18:06:16;99099.40;;;5.80
71205;BMP180;58935;54.498;18.544;2023-01-09T18:08:45;99101.20;;;5.84
71205;BMP180;58935;54.498;18.544;2023-01-09T18:11:16;99101.20;;;5.82
71205;BMP180;58935;54.498;18.544;2023-01-09T18:13:46;99098.60;;;5.80